createdAt,value
2018-08-10T03:07:32.040Z,98790.66
2018-08-10T03:39:55.813Z,98818.84
2018-08-10T03:42:22.485Z,98830.95
2018-08-10T03:44:49.168Z,98829.09
2018-08-10T03:47:15.996Z,98841.02
2018-08-10T03:49:42.572Z,98839.31
2018-08-10T03:52:09.049Z,98838.84
2018-08-10T03:54:35.517Z,98835.12
2018-08-10T03:57:02.427Z,98841.56
2018-08-10T03:59:28.872Z,98870.05
2018-08-10T04:01:55.339Z,98845.51
2018-08-10T04:04:24.706Z,98852.02
2018-08-10T04:06:52.672Z,98855.89
2018-08-10T04:09:19.328Z,98867.52
2018-08-10T04:51:30.431Z,98902.05
2018-08-10T04:53:57.097Z,98910.86
2018-08-10T04:56:23.731Z,98903.77
2018-08-10T04:58:50.568Z,98911.44
2018-08-10T05:01:17.208Z,98926.41
2018-08-10T05:03:43.721Z,98929.82
2018-08-10T05:06:10.697Z,98922.36
2018-08-10T05:08:37.181Z,98932.30
2018-08-10T05:12:05.431Z,98936.10
2018-08-10T05:14:32.035Z,98949.18
2018-08-10T05:30:37.871Z,98965.59
2018-08-10T05:33:05.391Z,98968.53
2018-08-10T05:35:33.563Z,98971.70
2018-08-10T05:38:00.080Z,98974.11
2018-08-10T05:40:26.589Z,98974.22
2018-08-10T05:42:53.357Z,98970.25
2018-08-10T05:45:20.609Z,98974.45
2018-08-10T05:47:47.909Z,98972.36
2018-08-10T07:53:32.381Z,99065.94
2018-08-10T07:55:59.291Z,99066.73
2018-08-10T07:58:25.842Z,99073.04
2018-08-10T08:00:54.620Z,99067.98
2018-08-10T08:03:22.391Z,99061.36
2018-08-10T08:05:49.736Z,99074.75
2018-08-10T08:08:16.895Z,99069.34
2018-08-10T08:10:43.426Z,99077.19
2018-08-10T08:13:09.927Z,99083.45
2018-08-10T08:15:37.032Z,99079.79
2018-08-10T08:18:03.609Z,99091.55
2018-08-10T08:20:31.056Z,99082.11
2018-08-10T08:22:59.109Z,99083.66
2018-08-10T08:25:26.374Z,99068.44
2018-08-10T08:27:53.331Z,99084.77
2018-08-10T08:30:22.004Z,99076.88
2018-08-10T08:32:48.742Z,99088.47
2018-08-10T08:35:15.350Z,99104.05
2018-08-10T08:37:42.277Z,99090.95
2018-08-10T08:40:08.783Z,99098.28
2018-08-10T08:42:37.001Z,99102.14
2018-08-10T08:45:06.942Z,99080.69
2018-08-10T08:47:33.622Z,99078.87
2018-08-10T08:50:01.152Z,99086.80
2018-08-10T08:52:27.648Z,99094.20
2018-08-10T08:54:54.362Z,99085.79
2018-08-10T08:57:21.196Z,99082.07
2018-08-10T08:59:47.640Z,99079.89
2018-08-10T09:02:14.133Z,99084.66
2018-08-10T09:04:40.925Z,99081.84
2018-08-10T09:07:09.085Z,99077.91
2018-08-10T16:10:16.170Z,98940.84
2018-08-10T16:12:42.671Z,98940.31
2018-08-10T16:16:32.811Z,98942.91
2018-08-10T18:24:11.684Z,98925.94
2018-08-10T18:26:39.942Z,98932.25
2018-08-10T18:29:06.567Z,98926.14
2018-08-10T19:15:02.856Z,98928.70
2018-08-10T19:17:29.802Z,98929.88
2018-08-10T19:19:56.558Z,98927.82
2018-08-10T19:22:24.126Z,98930.45
2018-08-10T19:24:52.032Z,98931.92
2018-08-10T19:27:19.975Z,98933.50
2018-08-10T19:29:51.802Z,98936.64
2018-08-10T19:32:22.216Z,98940.26
2018-08-10T19:34:51.169Z,98934.44
2018-08-10T19:37:17.729Z,98937.58
2018-08-10T19:39:45.361Z,98944.20
2018-08-10T19:42:11.939Z,98941.39
2018-08-10T19:44:38.498Z,98941.24
2018-08-10T19:52:14.323Z,98945.22
2018-08-10T19:54:43.748Z,98946.05
2018-08-10T19:57:11.550Z,98944.32
2018-08-10T19:59:38.201Z,98938.84
2018-08-10T20:02:05.234Z,98944.81
2018-08-10T20:04:32.368Z,98942.51
2018-08-10T20:07:01.602Z,98939.23
2018-08-10T20:09:35.995Z,98937.27
2018-08-10T20:12:02.796Z,98942.13
2018-08-10T20:14:30.589Z,98933.37
2018-08-10T20:16:59.700Z,98944.30
2018-08-10T20:22:02.333Z,98936.87
2018-08-10T20:24:29.498Z,98936.75
2018-08-10T20:26:56.264Z,98933.52
2018-08-10T20:29:22.793Z,98928.39
2018-08-10T20:31:50.660Z,98930.65
2018-08-10T20:34:17.341Z,98928.77
2018-08-10T20:36:43.931Z,98934.23
2018-08-10T20:39:11.374Z,98934.83
2018-08-10T20:41:37.956Z,98931.69
2018-08-10T20:44:04.494Z,98929.11
2018-08-10T20:46:31.475Z,98925.95
2018-08-10T20:48:59.076Z,98932.71
2018-08-10T20:51:26.097Z,98932.03
2018-08-10T20:53:54.973Z,98929.30
2018-08-10T20:56:22.134Z,98930.65
2018-08-10T20:58:48.609Z,98926.14
2018-08-10T21:01:16.119Z,98924.91
2018-08-10T21:03:42.656Z,98919.05
2018-08-10T21:06:10.518Z,98924.25
2018-08-10T21:08:37.478Z,98913.58
2018-08-10T21:11:05.897Z,98918.09
2018-08-10T21:13:32.524Z,98910.44
2018-08-10T21:15:59.443Z,98920.77
2018-08-10T21:18:26.128Z,98916.83
2018-08-10T21:20:52.697Z,98918.77
2018-08-10T21:23:20.193Z,98909.03
2018-08-10T21:25:46.812Z,98908.90
2018-08-10T21:28:13.396Z,98910.99
2018-08-10T21:30:40.499Z,98911.56
2018-08-10T21:33:08.631Z,98909.03
2018-08-10T21:35:35.119Z,98901.13
2018-08-10T21:38:02.691Z,98905.22
2018-08-10T21:40:29.208Z,98903.98
2018-08-10T21:42:55.730Z,98908.91
2018-08-10T21:45:22.661Z,98908.75
2018-08-10T21:47:51.375Z,98908.14
2018-08-10T21:50:17.894Z,98915.95
2018-08-10T23:37:04.494Z,98851.52
2018-08-10T23:39:32.015Z,98845.22
2018-08-10T23:41:59.482Z,98855.29
2018-08-10T23:44:27.661Z,98847.73
2018-08-10T23:46:54.781Z,98845.92
2018-08-10T23:49:21.233Z,98842.78
2018-08-10T23:51:48.056Z,98846.09
2018-08-10T23:54:14.514Z,98841.55
2018-08-10T23:56:40.964Z,98833.34
2018-08-10T23:59:07.459Z,98840.38
